Bascharage, Luxembourg
Current Conditions -  °F | °C
As of 9:20 AM on Monday 26 Jan 2015 (Local Time) from ELLX Reporting Station
Drizzle Drizzle  
Wind Chill: 26°   Ceiling: 100
Heat Index: 32°   Visibility: 0.25mi
Dew Point: 32°   Wind: 6mph
Humidity: 100%   Direction: 200°SSW
Pressure: 30.21"   Gusts: NA
Location:  49.57°N, 5.91°E
Report Text: ELLX 260820Z 20005KT 180V240 0400 R24/1300V1500N -DZ FG BKN001 00/00 Q1023 TEMPO 1500 -RASN
Loading
Personal Weather Stations






























Interactive Weather Map New forecast layout! Learn more

10-Day Weather Forecast

Advertisements
Track Severe Weather on mobile